Time;durP1;ratioP1;P1;durP2;ratioP2;P2;SDS_P1;SDS_P2;PMS_P1;PMS_P2;Temp;Humidity;BMP_temperature;BMP_pressure;BME280_temperature;BME280_humidity;BME280_pressure;Samples;Min_cycle;Max_cycle;Signal;HPM_P1;HPM_P2
2022/04/30 00:01:36;;;;;;;0.50;0.50;;;10.80;99.90;;;;;;4995029;28;20525;-73
2022/04/30 00:04:24;;;;;;;0.50;0.50;;;10.70;99.90;;;;;;4993654;28;20430;-73
2022/04/30 00:07:16;;;;;;;0.40;0.40;;;10.80;99.90;;;;;;4993932;28;20534;-73
2022/04/30 00:10:05;;;;;;;0.40;0.40;;;10.60;99.90;;;;;;4994007;28;20455;-73
2022/04/30 00:12:53;;;;;;;0.50;0.50;;;10.60;99.90;;;;;;4994170;28;20429;-73
2022/04/30 00:15:41;;;;;;;0.50;0.50;;;10.60;99.90;;;;;;4993732;28;20489;-73
2022/04/30 00:18:31;;;;;;;0.50;0.50;;;10.60;99.90;;;;;;4994028;28;21037;-72
2022/04/30 00:21:19;;;;;;;0.50;0.50;;;10.60;99.90;;;;;;4993504;28;20501;-73
2022/04/30 00:24:07;;;;;;;2.40;2.20;;;10.60;99.90;;;;;;4994223;28;20443;-73
2022/04/30 00:26:57;;;;;;;0.50;0.50;;;10.60;99.90;;;;;;4993791;28;20501;-73
2022/04/30 00:29:46;;;;;;;0.50;0.50;;;10.60;99.90;;;;;;4993792;28;20504;-73
2022/04/30 00:32:34;;;;;;;0.47;0.47;;;10.60;99.90;;;;;;4993730;28;20543;-72
2022/04/30 00:35:24;;;;;;;0.40;0.40;;;10.60;99.90;;;;;;4993681;28;20431;-72
2022/04/30 00:38:12;;;;;;;0.50;0.50;;;10.60;99.90;;;;;;4993920;28;20450;-73
2022/04/30 00:41:00;;;;;;;0.47;0.47;;;10.60;99.90;;;;;;4993972;28;20458;-73
2022/04/30 00:43:50;;;;;;;0.50;0.50;;;10.50;99.90;;;;;;4993941;28;20471;-72
2022/04/30 00:46:38;;;;;;;0.50;0.50;;;10.50;99.90;;;;;;4993045;28;20466;-72
2022/04/30 00:49:26;;;;;;;0.50;0.50;;;10.40;99.90;;;;;;4993227;28;20435;-72
2022/04/30 00:52:17;;;;;;;0.50;0.50;;;10.30;99.90;;;;;;4992917;28;20427;-73
2022/04/30 00:55:08;;;;;;;0.40;0.40;;;10.40;99.90;;;;;;4993936;28;20470;-72
2022/04/30 00:58:02;;;;;;;0.50;0.50;;;10.30;99.90;;;;;;5007875;28;20818;-72
2022/04/30 01:00:50;;;;;;;0.50;0.50;;;10.30;99.90;;;;;;5011992;28;20437;-74
2022/04/30 01:03:39;;;;;;;0.40;0.40;;;10.30;99.90;;;;;;5011947;28;20434;-75
2022/04/30 01:06:48;;;;;;;0.40;0.40;;;10.20;99.90;;;;;;5012238;28;20430;-72
2022/04/30 01:09:39;;;;;;;0.50;0.50;;;10.20;99.90;;;;;;5015103;28;20437;-73
2022/04/30 01:12:27;;;;;;;0.50;0.50;;;10.20;99.90;;;;;;5015848;28;20939;-73
2022/04/30 01:15:16;;;;;;;0.50;0.50;;;10.10;99.90;;;;;;5016005;28;20938;-72
2022/04/30 01:18:06;;;;;;;0.50;0.50;;;10.00;99.90;;;;;;5016019;28;20450;-73
2022/04/30 01:21:03;;;;;;;0.50;0.50;;;10.00;99.90;;;;;;5010033;28;20953;-73
2022/04/30 01:23:53;;;;;;;0.40;0.40;;;9.90;99.90;;;;;;5017361;28;20426;-73
2022/04/30 01:26:42;;;;;;;0.40;0.40;;;9.90;99.90;;;;;;5016330;28;20422;-74
2022/04/30 01:29:32;;;;;;;0.40;0.40;;;9.80;99.90;;;;;;5016603;28;20426;-73
2022/04/30 01:38:41;;;;;;;0.40;0.40;;;9.70;99.90;;;;;;5017331;28;20485;-73
2022/04/30 01:41:30;;;;;;;0.50;0.50;;;9.60;99.90;;;;;;5024143;28;20500;-73
2022/04/30 01:44:19;;;;;;;0.40;0.40;;;9.60;99.90;;;;;;5017725;28;20434;-73
2022/04/30 01:47:08;;;;;;;0.50;0.50;;;9.40;99.90;;;;;;5016525;28;20453;-73
2022/04/30 01:49:56;;;;;;;0.50;0.50;;;9.40;99.90;;;;;;5016445;28;20511;-72
2022/04/30 01:52:44;;;;;;;0.50;0.50;;;9.40;99.90;;;;;;5016057;28;20418;-72
2022/04/30 01:55:32;;;;;;;0.50;0.50;;;9.40;99.90;;;;;;5016710;28;20422;-73
2022/04/30 01:58:21;;;;;;;0.40;0.40;;;9.40;99.90;;;;;;5015538;28;20441;-72
2022/04/30 02:01:10;;;;;;;0.40;0.40;;;9.40;99.90;;;;;;5016641;28;20543;-73
2022/04/30 02:03:58;;;;;;;0.40;0.40;;;9.40;99.90;;;;;;5016058;28;20951;-73
2022/04/30 02:06:47;;;;;;;0.50;0.50;;;9.50;99.90;;;;;;5016853;28;20784;-73
2022/04/30 02:09:35;;;;;;;1.43;1.43;;;9.50;99.90;;;;;;5016251;28;20450;-73
2022/04/30 02:12:25;;;;;;;0.50;0.50;;;9.40;99.90;;;;;;5016681;28;20510;-72
2022/04/30 02:15:17;;;;;;;0.40;0.40;;;9.30;99.90;;;;;;5016448;28;20822;-73
2022/04/30 02:18:06;;;;;;;0.50;0.50;;;9.30;99.90;;;;;;5017122;28;20454;-73
2022/04/30 02:20:55;;;;;;;0.50;0.50;;;9.30;99.90;;;;;;5016268;28;20418;-73
2022/04/30 02:23:44;;;;;;;0.47;0.47;;;9.30;99.90;;;;;;5014712;28;20959;-73
2022/04/30 02:26:32;;;;;;;0.50;0.50;;;9.20;99.90;;;;;;5016098;28;20573;-73
2022/04/30 02:29:20;;;;;;;0.50;0.50;;;9.20;99.90;;;;;;5016237;28;20427;-73
2022/04/30 02:32:09;;;;;;;0.50;0.50;;;9.20;99.90;;;;;;5015286;28;20458;-74
2022/04/30 02:34:57;;;;;;;0.40;0.40;;;9.20;99.90;;;;;;5016330;28;20434;-73
2022/04/30 02:37:48;;;;;;;0.43;0.43;;;9.20;99.90;;;;;;5016444;28;20508;-74
2022/04/30 02:40:38;;;;;;;0.50;0.50;;;9.10;99.90;;;;;;5015490;28;20480;-72
2022/04/30 02:43:28;;;;;;;0.50;0.50;;;9.30;99.90;;;;;;5016567;28;20469;-72
2022/04/30 02:46:16;;;;;;;0.50;0.50;;;9.20;99.90;;;;;;5015540;28;20422;-73
2022/04/30 02:49:05;;;;;;;0.50;0.50;;;9.00;99.90;;;;;;5016134;28;20443;-72
2022/04/30 02:51:54;;;;;;;1.90;1.80;;;9.00;99.90;;;;;;5015690;28;20472;-72
2022/04/30 02:54:42;;;;;;;1.37;1.37;;;8.80;99.90;;;;;;5015533;28;20425;-72
2022/04/30 02:59:53;;;;;;;0.40;0.40;;;8.80;99.90;;;;;;5015562;28;20521;-73
2022/04/30 03:00:49;;;;;;;26.50;16.50;;;8.90;99.90;;;;;;5014825;28;20434;-73
2022/04/30 03:03:37;;;;;;;0.40;0.40;;;8.80;99.90;;;;;;5015957;28;20464;-73
2022/04/30 03:06:27;;;;;;;0.50;0.50;;;8.70;99.90;;;;;;5016709;28;20883;-74
2022/04/30 03:09:16;;;;;;;0.50;0.50;;;8.70;99.90;;;;;;5015510;28;20568;-72
2022/04/30 03:12:05;;;;;;;0.50;0.50;;;8.60;99.90;;;;;;5016857;28;20434;-71
2022/04/30 03:14:53;;;;;;;0.47;0.47;;;8.60;99.90;;;;;;5017095;28;20429;-73
2022/04/30 03:23:55;;;;;;;0.50;0.50;;;8.50;99.90;;;;;;5015711;28;20465;-73
2022/04/30 03:26:44;;;;;;;0.50;0.50;;;8.50;99.90;;;;;;5016273;28;20802;-74
2022/04/30 03:29:32;;;;;;;0.47;0.47;;;8.50;99.90;;;;;;5015729;28;20430;-74
2022/04/30 03:32:20;;;;;;;0.40;0.40;;;8.50;99.90;;;;;;5015609;28;20426;-72
2022/04/30 03:35:09;;;;;;;0.50;0.50;;;8.40;99.90;;;;;;5016390;28;20519;-75
2022/04/30 03:37:57;;;;;;;0.50;0.50;;;8.40;99.90;;;;;;5017304;28;20465;-73
2022/04/30 03:40:47;;;;;;;0.43;0.43;;;8.50;99.90;;;;;;5015024;28;21001;-73
2022/04/30 03:43:35;;;;;;;0.50;0.50;;;8.40;99.90;;;;;;5017174;28;20469;-73
2022/04/30 03:46:23;;;;;;;0.50;0.50;;;8.50;99.90;;;;;;5017587;28;20457;-73
2022/04/30 03:49:11;;;;;;;0.50;0.50;;;8.50;99.90;;;;;;5017135;28;20877;-73
2022/04/30 03:52:00;;;;;;;0.50;0.50;;;8.50;99.90;;;;;;5017670;28;20426;-72
2022/04/30 03:54:48;;;;;;;0.40;0.40;;;8.50;99.90;;;;;;5017463;28;20426;-74
2022/04/30 03:57:37;;;;;;;0.50;0.50;;;8.40;99.90;;;;;;5016829;28;20485;-73
2022/04/30 04:00:26;;;;;;;0.50;0.50;;;8.30;99.90;;;;;;5017336;28;20946;-71
2022/04/30 04:03:14;;;;;;;0.50;0.50;;;8.40;99.90;;;;;;5015782;28;20888;-72
2022/04/30 04:06:02;;;;;;;0.50;0.50;;;8.30;99.90;;;;;;5015695;28;20959;-73
2022/04/30 04:08:52;;;;;;;0.50;0.50;;;8.30;99.90;;;;;;5016098;28;20454;-72
2022/04/30 04:11:40;;;;;;;0.50;0.50;;;8.30;99.90;;;;;;5015152;28;20445;-72
2022/04/30 04:17:38;;;;;;;0.40;0.40;;;8.40;99.90;;;;;;5015409;28;20472;-74
2022/04/30 04:20:26;;;;;;;0.50;0.50;;;8.50;99.90;;;;;;5015283;28;20422;-72
2022/04/30 04:23:14;;;;;;;0.40;0.40;;;8.40;99.90;;;;;;5014994;28;20848;-73
2022/04/30 04:26:02;;;;;;;0.50;0.50;;;8.40;99.90;;;;;;5014283;28;20955;-73
2022/04/30 04:28:50;;;;;;;0.40;0.40;;;8.30;99.90;;;;;;5015053;28;20504;-74
2022/04/30 04:31:39;;;;;;;0.50;0.50;;;8.30;99.90;;;;;;5014338;28;20430;-73
2022/04/30 04:34:28;;;;;;;0.40;0.40;;;8.30;99.90;;;;;;5014713;28;20429;-73
2022/04/30 04:37:16;;;;;;;0.50;0.50;;;8.40;99.90;;;;;;5014976;28;20449;-73
2022/04/30 04:40:05;;;;;;;0.50;0.50;;;8.40;99.90;;;;;;5014848;28;20437;-72
2022/04/30 04:42:53;;;;;;;0.50;0.50;;;8.40;99.90;;;;;;5015651;28;20523;-73
2022/04/30 04:45:41;;;;;;;0.40;0.40;;;8.40;99.90;;;;;;5020649;28;20491;-72
2022/04/30 04:48:32;;;;;;;0.80;0.80;;;8.40;99.90;;;;;;5020769;28;20947;-72
2022/04/30 04:51:21;;;;;;;0.50;0.50;;;8.30;99.90;;;;;;5020812;28;20446;-72
2022/04/30 04:54:09;;;;;;;0.50;0.50;;;8.50;99.90;;;;;;5020624;28;20954;-72
2022/04/30 04:56:57;;;;;;;0.50;0.50;;;8.50;99.90;;;;;;5020798;28;20450;-75
2022/04/30 04:59:45;;;;;;;0.50;0.50;;;8.60;99.90;;;;;;5021597;28;20499;-72
2022/04/30 05:02:33;;;;;;;0.47;0.47;;;8.50;99.90;;;;;;5021464;28;20785;-73
2022/04/30 05:05:23;;;;;;;0.80;0.80;;;8.60;99.90;;;;;;5021352;28;21025;-74
2022/04/30 05:08:11;;;;;;;0.50;0.50;;;8.60;99.90;;;;;;5021887;28;20512;-72
2022/04/30 05:10:59;;;;;;;0.50;0.50;;;8.50;99.90;;;;;;5021542;28;20430;-73
2022/04/30 05:13:47;;;;;;;0.50;0.50;;;8.60;99.90;;;;;;5022147;28;20445;-72
2022/04/30 05:16:35;;;;;;;0.50;0.50;;;8.60;99.90;;;;;;5020665;28;20434;-74
2022/04/30 05:19:23;;;;;;;0.50;0.50;;;8.60;99.90;;;;;;5021631;28;20453;-72
2022/04/30 05:22:13;;;;;;;0.80;0.80;;;8.70;99.90;;;;;;5020079;28;20480;-72
2022/04/30 05:25:02;;;;;;;0.50;0.50;;;8.70;99.90;;;;;;5021374;28;20470;-74
2022/04/30 05:27:50;;;;;;;0.50;0.50;;;8.80;99.90;;;;;;5020997;28;20456;-74
2022/04/30 05:30:39;;;;;;;0.50;0.50;;;9.00;99.90;;;;;;5019954;28;20425;-72
2022/04/30 05:33:28;;;;;;;0.50;0.50;;;9.00;99.90;;;;;;5020960;28;20421;-75
2022/04/30 05:36:17;;;;;;;0.50;0.50;;;9.00;99.90;;;;;;5020462;28;20429;-72
2022/04/30 05:39:06;;;;;;;0.50;0.50;;;9.10;99.90;;;;;;5021706;28;20434;-73
2022/04/30 05:41:54;;;;;;;0.50;0.50;;;9.20;99.90;;;;;;5019999;28;20958;-74
2022/04/30 05:44:42;;;;;;;0.50;0.50;;;9.20;99.90;;;;;;5020063;28;20464;-73
2022/04/30 05:47:31;;;;;;;0.50;0.50;;;9.30;99.90;;;;;;5019265;28;20465;-74
2022/04/30 05:50:19;;;;;;;0.50;0.50;;;9.40;99.90;;;;;;5019268;28;20425;-72
2022/04/30 05:53:07;;;;;;;0.50;0.50;;;9.50;99.90;;;;;;5019813;28;20426;-74
2022/04/30 05:55:56;;;;;;;1.00;0.70;;;9.50;99.90;;;;;;5015359;28;21332;-74
2022/04/30 05:58:44;;;;;;;0.50;0.50;;;9.60;99.90;;;;;;4997671;28;20442;-74
2022/04/30 06:01:32;;;;;;;3.23;3.03;;;9.60;99.90;;;;;;5004866;28;20438;-74
2022/04/30 06:04:21;;;;;;;0.60;0.60;;;9.70;99.90;;;;;;5016395;28;20480;-73
2022/04/30 06:07:09;;;;;;;0.43;0.43;;;9.70;99.90;;;;;;5016828;28;20584;-74
2022/04/30 06:09:57;;;;;;;0.50;0.50;;;9.80;99.90;;;;;;5016062;28;20504;-75
2022/04/30 06:12:46;;;;;;;0.50;0.50;;;9.90;99.90;;;;;;5015451;28;20438;-74
2022/04/30 06:15:34;;;;;;;0.50;0.50;;;9.90;99.90;;;;;;5016656;28;20426;-73
2022/04/30 06:18:25;;;;;;;0.50;0.50;;;10.00;99.90;;;;;;5016242;28;20492;-73
2022/04/30 06:21:13;;;;;;;0.50;0.50;;;10.10;99.90;;;;;;5016109;28;20437;-74
2022/04/30 06:24:01;;;;;;;0.70;0.70;;;10.00;99.90;;;;;;5016617;28;20890;-73
2022/04/30 06:26:53;;;;;;;2.00;0.90;;;10.10;99.90;;;;;;5016328;28;20450;-72
2022/04/30 06:29:42;;;;;;;0.50;0.50;;;10.10;99.90;;;;;;5015876;28;20521;-75
2022/04/30 06:32:31;;;;;;;1.27;1.17;;;10.30;99.90;;;;;;5015904;28;20430;-73
2022/04/30 06:35:19;;;;;;;0.50;0.50;;;10.50;99.90;;;;;;5015495;28;20422;-74
2022/04/30 06:38:07;;;;;;;0.67;0.67;;;10.50;99.90;;;;;;5014915;28;20473;-74
2022/04/30 06:40:56;;;;;;;0.40;0.40;;;10.60;99.90;;;;;;5015653;28;20434;-74
2022/04/30 06:43:44;;;;;;;0.70;0.70;;;10.90;99.90;;;;;;5015862;28;20430;-74
2022/04/30 06:46:34;;;;;;;0.40;0.40;;;11.10;99.90;;;;;;5016728;28;20573;-74
2022/04/30 06:49:23;;;;;;;0.50;0.50;;;11.20;99.90;;;;;;5016473;28;20433;-75
2022/04/30 06:52:11;;;;;;;0.40;0.40;;;11.40;99.90;;;;;;5016892;28;20433;-75
2022/04/30 06:58:06;;;;;;;0.90;0.90;;;11.50;99.90;;;;;;5016301;28;20448;-75
2022/04/30 07:04:05;;;;;;;0.50;0.50;;;11.70;99.90;;;;;;5016450;28;20469;-72
2022/04/30 07:06:53;;;;;;;0.47;0.47;;;11.90;99.90;;;;;;5015518;28;20504;-73
2022/04/30 07:09:42;;;;;;;1.10;1.10;;;12.00;99.90;;;;;;5016273;28;20968;-74
2022/04/30 07:12:30;;;;;;;0.43;0.43;;;12.00;99.90;;;;;;5016281;28;20451;-75
2022/04/30 07:15:18;;;;;;;3.80;1.37;;;11.90;99.90;;;;;;5015832;28;20430;-73
2022/04/30 07:18:06;;;;;;;0.40;0.40;;;12.00;99.90;;;;;;5016454;28;20453;-73
2022/04/30 07:20:56;;;;;;;2.13;1.93;;;12.00;99.90;;;;;;5016810;28;21112;-75
2022/04/30 07:23:44;;;;;;;0.40;0.40;;;12.00;99.90;;;;;;5016835;28;20484;-74
2022/04/30 07:26:32;;;;;;;0.40;0.40;;;12.00;99.90;;;;;;5015255;28;20810;-74
2022/04/30 07:29:20;;;;;;;0.40;0.40;;;12.10;99.90;;;;;;5015110;28;20488;-74
2022/04/30 07:32:09;;;;;;;0.50;0.50;;;12.20;99.90;;;;;;5015705;28;21018;-74
2022/04/30 07:34:57;;;;;;;0.40;0.40;;;12.30;99.90;;;;;;5016766;28;20476;-75
2022/04/30 07:37:46;;;;;;;0.47;0.47;;;12.50;99.90;;;;;;5016821;28;20454;-75
2022/04/30 07:40:35;;;;;;;0.50;0.50;;;12.70;99.90;;;;;;5015721;28;20836;-73
2022/04/30 07:43:24;;;;;;;0.40;0.40;;;12.70;99.90;;;;;;5016251;28;20434;-76
2022/04/30 07:46:12;;;;;;;0.50;0.50;;;12.80;99.90;;;;;;5016438;28;20280;-75
2022/04/30 07:49:00;;;;;;;0.67;0.63;;;12.90;99.90;;;;;;5015660;28;20207;-74
2022/04/30 07:51:55;;;;;;;0.70;0.63;;;12.80;99.90;;;;;;5014459;28;20203;-73
2022/04/30 07:54:45;;;;;;;0.67;0.67;;;12.60;99.90;;;;;;5014476;28;20429;-72
2022/04/30 07:57:34;;;;;;;0.50;0.50;;;12.50;99.90;;;;;;5015424;28;20227;-75
2022/04/30 08:00:22;;;;;;;0.50;0.50;;;12.30;99.90;;;;;;5015743;28;20422;-74
2022/04/30 08:03:10;;;;;;;0.40;0.40;;;12.30;99.90;;;;;;5016365;28;20426;-75
2022/04/30 08:05:59;;;;;;;0.67;0.67;;;12.10;99.90;;;;;;5014646;28;20939;-73
2022/04/30 08:08:47;;;;;;;0.60;0.60;;;12.10;99.90;;;;;;5014998;28;20454;-77
2022/04/30 08:11:36;;;;;;;0.50;0.50;;;12.00;99.90;;;;;;5014432;28;20429;-74
2022/04/30 08:14:24;;;;;;;0.70;0.70;;;11.90;99.90;;;;;;5014639;28;20437;-74
2022/04/30 08:17:13;;;;;;;0.40;0.40;;;11.80;99.90;;;;;;5014058;28;20474;-72
2022/04/30 08:20:01;;;;;;;0.40;0.40;;;11.80;99.90;;;;;;5014112;28;20434;-72
2022/04/30 08:22:50;;;;;;;0.50;0.50;;;11.90;99.90;;;;;;5014437;28;20422;-73
2022/04/30 08:25:38;;;;;;;0.40;0.40;;;12.00;99.90;;;;;;5014536;28;20473;-76
2022/04/30 08:28:34;;;;;;;0.40;0.40;;;12.20;99.90;;;;;;5013559;28;20492;-73
2022/04/30 08:31:22;;;;;;;0.40;0.40;;;12.20;99.90;;;;;;5013951;28;20467;-71
2022/04/30 08:34:10;;;;;;;2.00;1.90;;;12.40;99.90;;;;;;5013897;28;20426;-76
2022/04/30 08:36:58;;;;;;;0.50;0.50;;;12.70;99.90;;;;;;5014213;28;20445;-74
2022/04/30 08:39:48;;;;;;;0.40;0.40;;;12.60;99.90;;;;;;5013788;28;20888;-74
2022/04/30 08:42:36;;;;;;;0.77;0.77;;;12.80;99.90;;;;;;5013540;28;20434;-72
2022/04/30 08:45:28;;;;;;;0.60;0.60;;;13.00;99.90;;;;;;5015401;28;20892;-74
2022/04/30 08:48:17;;;;;;;0.47;0.47;;;13.10;99.90;;;;;;5013481;28;20535;-75
2022/04/30 08:51:05;;;;;;;0.43;0.43;;;13.20;99.90;;;;;;5013620;28;20441;-70
2022/04/30 08:53:53;;;;;;;0.40;0.40;;;13.30;99.90;;;;;;5013958;28;20533;-74
2022/04/30 08:56:52;;;;;;;0.40;0.40;;;13.50;99.90;;;;;;5013602;28;20476;-75
2022/04/30 08:59:40;;;;;;;0.87;0.87;;;13.50;99.90;;;;;;5014724;28;20429;-71
2022/04/30 09:02:30;;;;;;;0.70;0.50;;;13.60;99.90;;;;;;5015640;28;20203;-72
2022/04/30 09:05:18;;;;;;;1.37;0.80;;;13.70;99.90;;;;;;5014885;28;20556;-75
2022/04/30 09:08:07;;;;;;;0.40;0.40;;;13.90;99.90;;;;;;5013940;28;20222;-75
2022/04/30 09:11:05;;;;;;;1.93;0.83;;;14.00;99.90;;;;;;5015102;28;20825;-74
2022/04/30 09:13:54;;;;;;;1.37;0.80;;;14.00;99.90;;;;;;5013979;28;20434;-71
2022/04/30 09:16:42;;;;;;;0.70;0.70;;;14.10;99.90;;;;;;5013482;28;20453;-71
2022/04/30 09:19:33;;;;;;;2.77;1.50;;;14.20;99.90;;;;;;5012985;28;20245;-72
2022/04/30 09:22:29;;;;;;;1.47;1.37;;;14.20;99.90;;;;;;5013471;28;20194;-72
2022/04/30 09:25:17;;;;;;;0.40;0.40;;;14.20;99.90;;;;;;5013222;28;20643;-71
2022/04/30 09:28:25;;;;;;;0.50;0.50;;;14.20;99.90;;;;;;5012785;28;20692;-72
2022/04/30 09:31:16;;;;;;;0.57;0.57;;;14.40;99.90;;;;;;5018136;28;20622;-71
2022/04/30 09:37:41;;;;;;;3.13;1.90;;;14.50;99.90;;;;;;5016591;28;20286;-72
2022/04/30 09:40:24;;;;;;;0.50;0.50;;;14.70;99.90;;;;;;5017358;28;20198;-70
2022/04/30 09:43:16;;;;;;;0.50;0.50;;;14.80;99.90;;;;;;5018180;28;20304;-71
2022/04/30 09:46:07;;;;;;;0.57;0.57;;;14.90;99.90;;;;;;5017705;28;20302;-70
2022/04/30 09:55:10;;;;;;;0.40;0.40;;;15.20;99.90;;;;;;5018367;28;20723;-73
2022/04/30 09:57:59;;;;;;;1.77;1.67;;;15.40;99.90;;;;;;5017781;28;20226;-70
2022/04/30 10:00:47;;;;;;;0.40;0.40;;;15.50;99.90;;;;;;5016183;28;20198;-71
2022/04/30 10:03:36;;;;;;;0.40;0.40;;;15.70;99.90;;;;;;5016468;28;20206;-72
2022/04/30 10:06:24;;;;;;;0.50;0.50;;;16.00;99.90;;;;;;5017123;28;20222;-71
2022/04/30 10:09:14;;;;;;;0.40;0.40;;;16.20;99.90;;;;;;5017309;28;20206;-72
2022/04/30 10:12:11;;;;;;;0.40;0.40;;;16.40;99.90;;;;;;5016979;28;20771;-71
2022/04/30 10:15:12;;;;;;;0.40;0.40;;;16.30;99.90;;;;;;5018080;28;20195;-72
2022/04/30 10:18:02;;;;;;;0.40;0.40;;;16.40;99.90;;;;;;5017151;28;20229;-70
2022/04/30 10:20:51;;;;;;;0.40;0.40;;;16.50;99.90;;;;;;5016534;28;20203;-70
2022/04/30 10:23:39;;;;;;;0.40;0.40;;;16.50;99.90;;;;;;5016749;28;20206;-70
2022/04/30 10:26:31;;;;;;;0.47;0.47;;;16.70;99.90;;;;;;5015833;28;20682;-70
2022/04/30 10:29:22;;;;;;;1.15;0.95;;;16.80;99.90;;;;;;5016421;28;20226;-72
2022/04/30 10:32:10;;;;;;;0.82;0.47;;;17.00;99.90;;;;;;5015373;28;20230;-71
2022/04/30 10:34:58;;;;;;;1.17;1.17;;;17.10;99.90;;;;;;5015451;28;20679;-71
2022/04/30 10:37:47;;;;;;;0.40;0.40;;;17.20;99.90;;;;;;5015034;28;20270;-70
2022/04/30 10:40:39;;;;;;;0.40;0.40;;;17.30;99.90;;;;;;5014641;28;20203;-71
2022/04/30 10:43:34;;;;;;;0.63;0.63;;;17.50;99.90;;;;;;5015346;28;20215;-71
2022/04/30 10:46:23;;;;;;;2.15;2.05;;;17.50;99.90;;;;;;5015500;28;20210;-69
2022/04/30 10:49:12;;;;;;;0.40;0.40;;;17.50;99.90;;;;;;5015985;28;20198;-72
2022/04/30 10:52:00;;;;;;;0.50;0.50;;;17.60;99.90;;;;;;5014629;28;20264;-71
2022/04/30 10:54:50;;;;;;;0.60;0.60;;;17.90;99.90;;;;;;5014639;28;20203;-72
2022/04/30 10:57:41;;;;;;;0.93;0.93;;;18.00;99.90;;;;;;5014639;28;20301;-71
2022/04/30 11:00:29;;;;;;;0.40;0.40;;;18.10;99.90;;;;;;5014340;28;20198;-71
2022/04/30 11:03:25;;;;;;;0.52;0.52;;;18.20;99.90;;;;;;5014022;28;20229;-72
2022/04/30 11:06:19;;;;;;;0.85;0.85;;;18.30;99.40;;;;;;5014763;28;20214;-72
2022/04/30 11:09:09;;;;;;;0.40;0.40;;;18.50;99.30;;;;;;5014313;28;20204;-73
2022/04/30 11:11:57;;;;;;;0.50;0.50;;;18.90;98.50;;;;;;5013804;28;20296;-72
2022/04/30 11:14:46;;;;;;;0.90;0.60;;;18.90;97.30;;;;;;5014634;28;20593;-70
2022/04/30 11:17:43;;;;;;;0.60;0.60;;;19.00;96.90;;;;;;5012199;28;20277;-72
2022/04/30 11:20:36;;;;;;;0.40;0.40;;;18.90;97.20;;;;;;5013468;28;20207;-72
2022/04/30 11:23:24;;;;;;;0.50;0.50;;;18.80;97.30;;;;;;5013515;28;20206;-72
2022/04/30 11:26:18;;;;;;;0.60;0.60;;;18.90;97.40;;;;;;5013671;28;20261;-72
2022/04/30 11:29:10;;;;;;;0.40;0.40;;;19.10;97.50;;;;;;5012700;28;20566;-74
2022/04/30 11:31:59;;;;;;;0.80;0.80;;;19.10;96.70;;;;;;5013469;28;20202;-72
2022/04/30 11:34:47;;;;;;;1.42;1.38;;;19.20;96.80;;;;;;5012494;28;20298;-73
2022/04/30 11:37:40;;;;;;;0.40;0.40;;;19.10;96.90;;;;;;5013385;28;20261;-72
2022/04/30 11:40:28;;;;;;;0.40;0.40;;;19.40;97.20;;;;;;5013606;28;20253;-72
2022/04/30 11:43:24;;;;;;;0.40;0.40;;;19.40;96.00;;;;;;5012609;28;20203;-72
2022/04/30 11:46:12;;;;;;;0.40;0.40;;;19.60;95.80;;;;;;5012766;28;20305;-72
2022/04/30 11:49:00;;;;;;;1.13;1.13;;;19.80;95.80;;;;;;5013407;28;20682;-76
2022/04/30 11:52:09;;;;;;;0.50;0.50;;;19.80;94.90;;;;;;5013601;28;20199;-72
2022/04/30 11:55:01;;;;;;;0.68;0.68;;;19.50;95.00;;;;;;5013715;28;20211;-73
2022/04/30 11:57:50;;;;;;;0.70;0.70;;;19.20;95.50;;;;;;5013744;28;20293;-71
2022/04/30 12:00:39;;;;;;;0.40;0.40;;;19.20;94.90;;;;;;5012480;28;20222;-76
2022/04/30 12:03:28;;;;;;;0.50;0.50;;;19.40;95.40;;;;;;5011814;28;20211;-74
2022/04/30 12:06:19;;;;;;;0.50;0.50;;;19.70;94.60;;;;;;5011837;28;20207;-77
2022/04/30 12:09:15;;;;;;;0.40;0.40;;;19.70;94.30;;;;;;5011386;28;20234;-72
2022/04/30 12:12:16;;;;;;;0.88;0.70;;;20.00;93.90;;;;;;5012382;28;20210;-72
2022/04/30 12:15:05;;;;;;;0.40;0.40;;;20.30;93.10;;;;;;5012244;28;20203;-72
2022/04/30 12:27:23;;;;;;;0.80;0.70;;;20.30;91.70;;;;;;5012157;28;20744;-73
2022/04/30 12:30:14;;;;;;;0.50;0.50;;;20.10;92.40;;;;;;5012020;28;20207;-74
2022/04/30 12:33:04;;;;;;;0.40;0.40;;;20.20;92.00;;;;;;5011428;28;20194;-72
2022/04/30 12:35:57;;;;;;;0.50;0.50;;;20.20;91.90;;;;;;5012623;28;20203;-73
2022/04/30 12:38:54;;;;;;;0.98;0.80;;;20.30;91.60;;;;;;5012078;28;20738;-74
2022/04/30 12:41:42;;;;;;;0.50;0.50;;;20.30;91.40;;;;;;5011040;28;20231;-71
2022/04/30 12:44:32;;;;;;;0.50;0.50;;;20.30;91.40;;;;;;5010863;28;20199;-70
2022/04/30 12:47:20;;;;;;;0.40;0.40;;;20.90;91.00;;;;;;5011100;28;20357;-70
2022/04/30 12:50:09;;;;;;;5.00;1.90;;;21.50;90.00;;;;;;5011986;28;20702;-71
2022/04/30 12:52:57;;;;;;;0.80;0.80;;;22.40;87.80;;;;;;5013515;28;20206;-72
2022/04/30 12:55:47;;;;;;;0.57;0.57;;;23.40;85.00;;;;;;5011816;28;20202;-72
2022/04/30 12:58:35;;;;;;;0.40;0.40;;;24.20;82.40;;;;;;5013168;28;20322;-70
2022/04/30 13:01:24;;;;;;;0.40;0.40;;;25.40;78.40;;;;;;5012537;28;20686;-70
2022/04/30 13:04:13;;;;;;;0.40;0.40;;;26.80;73.90;;;;;;5012825;28;20203;-70
2022/04/30 13:07:01;;;;;;;2.95;2.75;;;28.50;69.90;;;;;;5015745;28;20223;-70
2022/04/30 13:16:04;;;;;;;0.60;0.60;;;30.30;55.60;;;;;;5015414;28;20260;-70
2022/04/30 13:18:53;;;;;;;0.40;0.40;;;29.40;56.50;;;;;;5016212;28;20215;-70
2022/04/30 13:21:43;;;;;;;0.50;0.50;;;28.80;55.00;;;;;;5014797;28;20307;-70
2022/04/30 13:24:33;;;;;;;0.60;0.60;;;29.50;54.70;;;;;;5016657;28;20261;-70
2022/04/30 13:27:21;;;;;;;0.50;0.45;;;30.70;54.20;;;;;;5015844;28;20353;-70
2022/04/30 13:30:11;;;;;;;0.40;0.40;;;31.00;51.70;;;;;;5015637;28;20234;-69
2022/04/30 13:32:59;;;;;;;0.40;0.40;;;30.90;51.20;;;;;;5015847;28;20253;-70
2022/04/30 13:35:48;;;;;;;0.40;0.40;;;31.20;49.60;;;;;;5015937;28;20241;-70
2022/04/30 13:38:38;;;;;;;0.40;0.40;;;31.90;48.40;;;;;;5015581;28;20726;-70
2022/04/30 13:41:26;;;;;;;0.40;0.40;;;32.80;45.30;;;;;;5014792;28;20238;-73
2022/04/30 13:44:14;;;;;;;0.45;0.45;;;33.40;45.80;;;;;;5015612;28;20229;-69
2022/04/30 13:47:03;;;;;;;0.70;0.70;;;34.10;43.30;;;;;;5013385;28;20241;-72
2022/04/30 13:49:51;;;;;;;0.40;0.40;;;35.40;43.50;;;;;;5016267;28;20205;-72
2022/04/30 13:52:40;;;;;;;0.77;0.77;;;37.40;40.60;;;;;;5015689;28;20235;-73
2022/04/30 13:55:29;;;;;;;0.50;0.50;;;37.50;38.70;;;;;;5015554;28;20211;-71
2022/04/30 13:58:17;;;;;;;0.50;0.50;;;34.00;40.20;;;;;;5015653;28;20248;-72
2022/04/30 14:01:05;;;;;;;0.60;0.60;;;30.60;43.50;;;;;;5013965;28;20211;-71
2022/04/30 14:03:53;;;;;;;0.40;0.40;;;27.40;46.90;;;;;;5014432;28;20229;-71
2022/04/30 14:06:41;;;;;;;0.40;0.40;;;25.60;49.60;;;;;;5014683;28;20202;-72
2022/04/30 14:09:31;;;;;;;0.70;0.70;;;24.40;51.30;;;;;;5015327;28;20277;-71
2022/04/30 14:12:19;;;;;;;1.13;1.08;;;23.40;52.60;;;;;;5014549;28;20214;-72
2022/04/30 14:15:09;;;;;;;0.40;0.40;;;22.70;53.20;;;;;;5013923;28;20210;-71
2022/04/30 14:21:06;;;;;;;0.60;0.60;;;22.10;54.80;;;;;;5014417;28;20607;-72
2022/04/30 14:23:54;;;;;;;0.73;0.73;;;22.00;55.50;;;;;;5014417;28;20202;-73
2022/04/30 14:26:44;;;;;;;0.50;0.50;;;21.90;56.30;;;;;;5013757;28;20582;-73
2022/04/30 14:29:32;;;;;;;0.40;0.40;;;21.60;56.20;;;;;;5014231;28;20357;-71
2022/04/30 14:32:20;;;;;;;0.40;0.40;;;21.80;56.50;;;;;;5013313;28;20231;-73
2022/04/30 14:35:09;;;;;;;0.40;0.40;;;22.20;56.80;;;;;;5013642;28;20206;-72
2022/04/30 14:37:57;;;;;;;0.40;0.40;;;22.60;56.20;;;;;;5014255;28;20230;-72
2022/04/30 14:40:45;;;;;;;0.50;0.50;;;23.20;55.90;;;;;;5013575;28;20675;-71
2022/04/30 14:43:36;;;;;;;0.40;0.40;;;23.60;53.70;;;;;;5014179;28;20248;-72
2022/04/30 14:46:24;;;;;;;0.95;0.95;;;23.70;53.50;;;;;;5014193;28;20206;-71
2022/04/30 14:49:13;;;;;;;0.40;0.40;;;23.60;53.80;;;;;;5013838;28;20241;-71
2022/04/30 14:52:01;;;;;;;0.40;0.40;;;23.40;53.60;;;;;;5013402;28;20275;-71
2022/04/30 14:54:49;;;;;;;0.40;0.40;;;23.00;53.60;;;;;;5012698;28;20238;-71
2022/04/30 14:57:37;;;;;;;0.40;0.40;;;23.10;54.50;;;;;;5013018;28;20704;-73
2022/04/30 15:00:27;;;;;;;0.40;0.40;;;22.60;53.80;;;;;;5013120;28;20218;-72
2022/04/30 15:03:15;;;;;;;0.73;0.73;;;22.60;53.90;;;;;;5014109;28;20269;-71
2022/04/30 15:06:04;;;;;;;0.40;0.40;;;23.10;54.00;;;;;;5014173;28;20292;-71
2022/04/30 15:08:52;;;;;;;0.40;0.40;;;23.40;54.20;;;;;;5013991;28;20733;-72
2022/04/30 15:11:40;;;;;;;0.40;0.40;;;23.40;54.50;;;;;;5014709;28;20292;-71
2022/04/30 15:14:28;;;;;;;0.40;0.40;;;23.40;53.20;;;;;;5015113;28;20198;-75
2022/04/30 15:17:18;;;;;;;0.63;0.63;;;23.40;52.70;;;;;;5014353;28;20700;-75
2022/04/30 15:20:07;;;;;;;0.88;0.70;;;23.40;53.50;;;;;;5014837;28;20202;-75
2022/04/30 15:22:55;;;;;;;0.40;0.40;;;23.90;53.60;;;;;;5014182;28;20210;-74
2022/04/30 15:25:43;;;;;;;2.95;1.75;;;24.70;52.40;;;;;;5015697;28;20238;-74
2022/04/30 15:28:31;;;;;;;0.40;0.40;;;24.40;51.70;;;;;;5015029;28;20276;-72
2022/04/30 15:31:39;;;;;;;0.43;0.43;;;24.10;51.70;;;;;;5013992;28;20705;-72
2022/04/30 15:34:30;;;;;;;0.40;0.40;;;24.00;52.00;;;;;;5015551;28;20238;-73
2022/04/30 15:37:18;;;;;;;0.85;0.85;;;25.00;52.20;;;;;;5013201;28;20683;-73